sensor_id;sensor_type;location;lat;lon;timestamp;pressure;altitude;pressure_sealevel;temperature;humidity
48527;BME280;34317;51.660;5.824;2023-08-06T00:00:56;100338.84;;;19.52;56.87
48527;BME280;34317;51.660;5.824;2023-08-06T00:03:23;100337.97;;;19.51;56.80
48527;BME280;34317;51.660;5.824;2023-08-06T00:05:50;100339.94;;;19.49;56.89
48527;BME280;34317;51.660;5.824;2023-08-06T00:08:17;100336.28;;;19.50;56.83
48527;BME280;34317;51.660;5.824;2023-08-06T00:10:44;100339.94;;;19.49;56.88
48527;BME280;34317;51.660;5.824;2023-08-06T00:13:10;100334.56;;;19.49;56.84
48527;BME280;34317;51.660;5.824;2023-08-06T00:15:37;100334.56;;;19.49;56.92
48527;BME280;34317;51.660;5.824;2023-08-06T00:18:04;100335.59;;;19.48;56.99
48527;BME280;34317;51.660;5.824;2023-08-06T00:20:31;100322.16;;;19.48;57.00
48527;BME280;34317;51.660;5.824;2023-08-06T00:22:58;100324.53;;;19.51;56.88
48527;BME280;34317;51.660;5.824;2023-08-06T00:25:25;100329.91;;;19.51;56.94
48527;BME280;34317;51.660;5.824;2023-08-06T00:27:52;100327.22;;;19.51;57.06
48527;BME280;34317;51.660;5.824;2023-08-06T00:30:19;100314.81;;;19.50;56.95
48527;BME280;34317;51.660;5.824;2023-08-06T00:32:46;100322.16;;;19.48;57.06
48527;BME280;34317;51.660;5.824;2023-08-06T00:35:14;100306.03;;;19.48;56.95
48527;BME280;34317;51.660;5.824;2023-08-06T00:37:41;100307.84;;;19.48;57.07
48527;BME280;34317;51.660;5.824;2023-08-06T00:40:08;100307.72;;;19.49;56.97
48527;BME280;34317;51.660;5.824;2023-08-06T00:42:35;100314.81;;;19.50;57.06
48527;BME280;34317;51.660;5.824;2023-08-06T00:45:02;100322.84;;;19.50;57.02
48527;BME280;34317;51.660;5.824;2023-08-06T00:47:29;100309.44;;;19.50;56.91
48527;BME280;34317;51.660;5.824;2023-08-06T00:49:57;100307.72;;;19.49;57.10
48527;BME280;34317;51.660;5.824;2023-08-06T00:52:24;100318.47;;;19.49;57.12
48527;BME280;34317;51.660;5.824;2023-08-06T00:54:51;100309.44;;;19.50;57.13
48527;BME280;34317;51.660;5.824;2023-08-06T00:57:18;100309.44;;;19.50;57.17
48527;BME280;34317;51.660;5.824;2023-08-06T00:59:45;100314.81;;;19.50;57.02
48527;BME280;34317;51.660;5.824;2023-08-06T01:02:12;100318.19;;;19.52;57.21
48527;BME280;34317;51.660;5.824;2023-08-06T01:04:41;100313.78;;;19.51;57.01
48527;BME280;34317;51.660;5.824;2023-08-06T01:15:29;100311.09;;;19.51;57.20
48527;BME280;34317;51.660;5.824;2023-08-06T01:17:59;100305.72;;;19.51;57.21
48527;BME280;34317;51.660;5.824;2023-08-06T01:20:30;100304.75;;;19.52;57.18
48527;BME280;34317;51.660;5.824;2023-08-06T01:22:57;100308.28;;;19.53;57.19
48527;BME280;34317;51.660;5.824;2023-08-06T01:25:33;100301.81;;;19.55;57.14
48527;BME280;34317;51.660;5.824;2023-08-06T01:28:11;100291.06;;;19.55;57.16
48527;BME280;34317;51.660;5.824;2023-08-06T01:30:43;100290.06;;;19.56;57.22
48527;BME280;34317;51.660;5.824;2023-08-06T01:33:12;100296.13;;;19.58;57.14
48527;BME280;34317;51.660;5.824;2023-08-06T01:35:43;100293.31;;;19.60;57.23
48527;BME280;34317;51.660;5.824;2023-08-06T01:38:10;100294.16;;;19.60;57.22
48527;BME280;34317;51.660;5.824;2023-08-06T01:40:37;100295.88;;;19.61;57.13
48527;BME280;34317;51.660;5.824;2023-08-06T01:43:04;100298.41;;;19.63;57.17
48527;BME280;34317;51.660;5.824;2023-08-06T01:45:30;100297.53;;;19.62;57.15
48527;BME280;34317;51.660;5.824;2023-08-06T01:47:57;100308.28;;;19.62;57.15
48527;BME280;34317;51.660;5.824;2023-08-06T01:50:24;100294.84;;;19.62;57.20
48527;BME280;34317;51.660;5.824;2023-08-06T01:52:51;100295.88;;;19.61;57.23
48527;BME280;34317;51.660;5.824;2023-08-06T01:55:18;100302.91;;;19.62;57.14
48527;BME280;34317;51.660;5.824;2023-08-06T01:57:45;100297.53;;;19.62;57.16
48527;BME280;34317;51.660;5.824;2023-08-06T02:00:12;100293.03;;;19.63;57.22
48527;BME280;34317;51.660;5.824;2023-08-06T02:02:39;100292.16;;;19.62;57.07
48527;BME280;34317;51.660;5.824;2023-08-06T02:05:09;100294.00;;;19.62;57.16
48527;BME280;34317;51.660;5.824;2023-08-06T02:07:36;100302.91;;;19.62;57.28
48527;BME280;34317;51.660;5.824;2023-08-06T02:10:03;100288.78;;;19.60;57.07
48527;BME280;34317;51.660;5.824;2023-08-06T02:12:30;100296.13;;;19.58;57.13
48527;BME280;34317;51.660;5.824;2023-08-06T02:14:57;100297.84;;;19.59;57.08
48527;BME280;34317;51.660;5.824;2023-08-06T02:17:24;100303.22;;;19.59;57.22
48527;BME280;34317;51.660;5.824;2023-08-06T02:19:51;100296.13;;;19.58;57.27
48527;BME280;34317;51.660;5.824;2023-08-06T02:22:18;100290.63;;;19.60;57.22
48527;BME280;34317;51.660;5.824;2023-08-06T02:24:45;100295.16;;;19.59;57.06
48527;BME280;34317;51.660;5.824;2023-08-06T02:27:11;100293.75;;;19.55;57.07
48527;BME280;34317;51.660;5.824;2023-08-06T02:29:39;100294.72;;;19.54;57.10
48527;BME280;34317;51.660;5.824;2023-08-06T02:32:07;100289.34;;;19.54;57.18
48527;BME280;34317;51.660;5.824;2023-08-06T02:34:34;100278.59;;;19.54;57.31
48527;BME280;34317;51.660;5.824;2023-08-06T02:37:01;100283.00;;;19.55;57.26
48527;BME280;34317;51.660;5.824;2023-08-06T02:39:28;100285.69;;;19.55;57.34
48527;BME280;34317;51.660;5.824;2023-08-06T02:41:57;100281.16;;;19.56;57.20
48527;BME280;34317;51.660;5.824;2023-08-06T02:44:27;100280.31;;;19.55;57.17
48527;BME280;34317;51.660;5.824;2023-08-06T02:46:54;100277.75;;;19.54;57.12
48527;BME280;34317;51.660;5.824;2023-08-06T02:49:21;100276.19;;;19.51;57.17
48527;BME280;34317;51.660;5.824;2023-08-06T02:51:48;100277.19;;;19.50;57.16
48527;BME280;34317;51.660;5.824;2023-08-06T02:54:18;100285.25;;;19.50;57.24
48527;BME280;34317;51.660;5.824;2023-08-06T02:56:45;100273.81;;;19.48;57.30
48527;BME280;34317;51.660;5.824;2023-08-06T02:59:23;100268.69;;;19.45;57.19
48527;BME280;34317;51.660;5.824;2023-08-06T03:02:12;100276.06;;;19.43;57.26
48527;BME280;34317;51.660;5.824;2023-08-06T03:04:49;100273.38;;;19.43;57.28
48527;BME280;34317;51.660;5.824;2023-08-06T03:07:18;100271.53;;;19.43;57.45
48527;BME280;34317;51.660;5.824;2023-08-06T03:09:54;100264.16;;;19.45;57.33
48527;BME280;34317;51.660;5.824;2023-08-06T03:12:21;100264.16;;;19.45;57.37
48527;BME280;34317;51.660;5.824;2023-08-06T03:14:48;100263.34;;;19.45;57.55
48527;BME280;34317;51.660;5.824;2023-08-06T03:17:16;100259.66;;;19.46;57.39
48527;BME280;34317;51.660;5.824;2023-08-06T03:19:43;100262.34;;;19.46;57.40
48527;BME280;34317;51.660;5.824;2023-08-06T03:22:11;100266.72;;;19.47;57.45
48527;BME280;34317;51.660;5.824;2023-08-06T03:24:38;100265.75;;;19.48;57.49
48527;BME280;34317;51.660;5.824;2023-08-06T03:27:07;100268.44;;;19.48;57.41
48527;BME280;34317;51.660;5.824;2023-08-06T03:29:36;100259.38;;;19.49;57.63
48527;BME280;34317;51.660;5.824;2023-08-06T03:32:03;100259.38;;;19.49;57.50
48527;BME280;34317;51.660;5.824;2023-08-06T03:34:31;100262.75;;;19.51;57.47
48527;BME280;34317;51.660;5.824;2023-08-06T03:36:57;100259.09;;;19.52;57.40
48527;BME280;34317;51.660;5.824;2023-08-06T03:39:26;100260.78;;;19.53;57.49
48527;BME280;34317;51.660;5.824;2023-08-06T03:41:53;100262.50;;;19.54;57.37
48527;BME280;34317;51.660;5.824;2023-08-06T03:44:21;100260.78;;;19.53;57.37
48527;BME280;34317;51.660;5.824;2023-08-06T03:46:48;100261.91;;;19.51;57.42
48527;BME280;34317;51.660;5.824;2023-08-06T03:49:15;100265.59;;;19.50;57.25
48527;BME280;34317;51.660;5.824;2023-08-06T03:51:42;100263.06;;;19.48;57.32
48527;BME280;34317;51.660;5.824;2023-08-06T03:54:09;100262.19;;;19.48;57.43
48527;BME280;34317;51.660;5.824;2023-08-06T03:56:37;100264.03;;;19.47;57.32
48527;BME280;34317;51.660;5.824;2023-08-06T03:59:04;100260.66;;;19.45;57.27
48527;BME280;34317;51.660;5.824;2023-08-06T04:01:31;100256.28;;;19.44;57.34
48527;BME280;34317;51.660;5.824;2023-08-06T04:03:58;100258.22;;;19.42;57.30
48527;BME280;34317;51.660;5.824;2023-08-06T04:06:25;100260.91;;;19.42;57.41
48527;BME280;34317;51.660;5.824;2023-08-06T04:08:52;100265.59;;;19.40;57.43
48527;BME280;34317;51.660;5.824;2023-08-06T04:11:19;100267.56;;;19.38;57.32
48527;BME280;34317;51.660;5.824;2023-08-06T04:13:46;100264.16;;;19.36;57.59
48527;BME280;34317;51.660;5.824;2023-08-06T04:16:13;100265.19;;;19.35;57.44
48527;BME280;34317;51.660;5.824;2023-08-06T04:18:41;100267.88;;;19.35;57.51
48527;BME280;34317;51.660;5.824;2023-08-06T04:21:08;100276.88;;;19.34;57.41
48527;BME280;34317;51.660;5.824;2023-08-06T04:23:35;100277.91;;;19.33;57.33
48527;BME280;34317;51.660;5.824;2023-08-06T04:26:05;100292.28;;;19.32;57.38
48527;BME280;34317;51.660;5.824;2023-08-06T04:28:34;100287.91;;;19.31;57.49
48527;BME280;34317;51.660;5.824;2023-08-06T04:31:01;100282.53;;;19.31;57.54
48527;BME280;34317;51.660;5.824;2023-08-06T04:33:31;100280.84;;;19.30;57.44
48527;BME280;34317;51.660;5.824;2023-08-06T04:36:01;100279.13;;;19.29;57.46
48527;BME280;34317;51.660;5.824;2023-08-06T04:38:28;100285.38;;;19.29;57.56
48527;BME280;34317;51.660;5.824;2023-08-06T04:40:57;100279.13;;;19.29;57.56
48527;BME280;34317;51.660;5.824;2023-08-06T04:43:24;100287.06;;;19.30;57.65
48527;BME280;34317;51.660;5.824;2023-08-06T04:45:53;100286.22;;;19.30;57.50
48527;BME280;34317;51.660;5.824;2023-08-06T04:48:20;100291.59;;;19.30;57.64
48527;BME280;34317;51.660;5.824;2023-08-06T04:50:48;100287.91;;;19.31;57.70
48527;BME280;34317;51.660;5.824;2023-08-06T04:53:15;100292.28;;;19.32;57.75
48527;BME280;34317;51.660;5.824;2023-08-06T04:55:42;100287.63;;;19.34;57.73
48527;BME280;34317;51.660;5.824;2023-08-06T04:58:09;100298.09;;;19.37;57.61
48527;BME280;34317;51.660;5.824;2023-08-06T05:00:36;100293.44;;;19.39;57.75
48527;BME280;34317;51.660;5.824;2023-08-06T05:03:04;100294.16;;;19.41;57.70
48527;BME280;34317;51.660;5.824;2023-08-06T05:05:31;100296.69;;;19.42;57.69
48527;BME280;34317;51.660;5.824;2023-08-06T05:07:58;100295.56;;;19.45;57.82
48527;BME280;34317;51.660;5.824;2023-08-06T05:10:31;100300.66;;;19.48;57.73
48527;BME280;34317;51.660;5.824;2023-08-06T05:12:59;100300.38;;;19.51;57.76
48527;BME280;34317;51.660;5.824;2023-08-06T05:15:26;100303.75;;;19.53;57.84
48527;BME280;34317;51.660;5.824;2023-08-06T05:17:53;100305.19;;;19.57;57.97
48527;BME280;34317;51.660;5.824;2023-08-06T05:20:20;100292.16;;;19.62;57.93
48527;BME280;34317;51.660;5.824;2023-08-06T05:22:47;100308.72;;;19.68;57.88
48527;BME280;34317;51.660;5.824;2023-08-06T05:25:14;100307.44;;;19.72;57.86
48527;BME280;34317;51.660;5.824;2023-08-06T05:27:41;100305.22;;;19.77;57.90
48527;BME280;34317;51.660;5.824;2023-08-06T05:30:08;100314.69;;;19.81;57.85
48527;BME280;34317;51.660;5.824;2023-08-06T05:32:35;100320.50;;;19.86;57.96
48527;BME280;34317;51.660;5.824;2023-08-06T05:35:02;100311.16;;;19.90;57.93
48527;BME280;34317;51.660;5.824;2023-08-06T05:37:29;100315.94;;;19.96;57.88
48527;BME280;34317;51.660;5.824;2023-08-06T05:39:56;100325.44;;;20.00;57.99
48527;BME280;34317;51.660;5.824;2023-08-06T05:42:23;100329.53;;;20.05;57.96
48527;BME280;34317;51.660;5.824;2023-08-06T05:44:50;100334.63;;;20.08;57.89
48527;BME280;34317;51.660;5.824;2023-08-06T05:47:17;100335.19;;;20.11;57.90
48527;BME280;34317;51.660;5.824;2023-08-06T05:49:46;100341.13;;;20.15;57.89
48527;BME280;34317;51.660;5.824;2023-08-06T05:52:13;100347.06;;;20.18;57.99
48527;BME280;34317;51.660;5.824;2023-08-06T05:54:40;100338.59;;;20.23;57.97
48527;BME280;34317;51.660;5.824;2023-08-06T05:57:07;100347.03;;;20.28;57.91
48527;BME280;34317;51.660;5.824;2023-08-06T05:59:34;100342.78;;;20.35;57.95
48527;BME280;34317;51.660;5.824;2023-08-06T06:02:01;100345.91;;;20.40;58.00
48527;BME280;34317;51.660;5.824;2023-08-06T06:04:28;100352.41;;;20.48;57.99
48527;BME280;34317;51.660;5.824;2023-08-06T06:06:55;100351.81;;;20.54;58.02
48527;BME280;34317;51.660;5.824;2023-08-06T06:09:22;100354.91;;;20.59;57.91
48527;BME280;34317;51.660;5.824;2023-08-06T06:11:49;100360.72;;;20.64;57.92
48527;BME280;34317;51.660;5.824;2023-08-06T06:14:17;100368.50;;;20.67;57.95
48527;BME280;34317;51.660;5.824;2023-08-06T06:16:45;100371.63;;;20.72;57.88
48527;BME280;34317;51.660;5.824;2023-08-06T06:19:12;100368.34;;;20.78;57.88
48527;BME280;34317;51.660;5.824;2023-08-06T06:21:39;100372.41;;;20.83;57.86
48527;BME280;34317;51.660;5.824;2023-08-06T06:24:06;100370.97;;;20.88;58.02
48527;BME280;34317;51.660;5.824;2023-08-06T06:26:35;100382.88;;;20.95;57.76
48527;BME280;34317;51.660;5.824;2023-08-06T06:29:02;100383.97;;;21.03;58.04
48527;BME280;34317;51.660;5.824;2023-08-06T06:31:29;100384.22;;;21.09;57.94
48527;BME280;34317;51.660;5.824;2023-08-06T06:33:56;100382.63;;;21.16;57.95
48527;BME280;34317;51.660;5.824;2023-08-06T06:36:24;100388.41;;;21.22;57.95
48527;BME280;34317;51.660;5.824;2023-08-06T06:38:51;100383.13;;;21.30;57.85
48527;BME280;34317;51.660;5.824;2023-08-06T06:41:18;100396.84;;;21.36;57.96
48527;BME280;34317;51.660;5.824;2023-08-06T06:43:45;100389.00;;;21.43;58.01
48527;BME280;34317;51.660;5.824;2023-08-06T06:46:12;100398.22;;;21.50;57.86
48527;BME280;34317;51.660;5.824;2023-08-06T06:48:39;100390.53;;;21.55;57.80
48527;BME280;34317;51.660;5.824;2023-08-06T06:51:06;100389.91;;;21.62;57.89
48527;BME280;34317;51.660;5.824;2023-08-06T06:53:33;100396.53;;;21.67;57.88
48527;BME280;34317;51.660;5.824;2023-08-06T06:56:03;100392.41;;;21.73;57.87
48527;BME280;34317;51.660;5.824;2023-08-06T06:58:31;100400.88;;;21.78;57.75
48527;BME280;34317;51.660;5.824;2023-08-06T07:00:58;100403.25;;;21.81;57.65
48527;BME280;34317;51.660;5.824;2023-08-06T07:03:25;100402.25;;;21.82;57.59
48527;BME280;34317;51.660;5.824;2023-08-06T07:05:56;100410.34;;;21.82;57.45
48527;BME280;34317;51.660;5.824;2023-08-06T07:08:23;100407.94;;;21.79;57.42
48527;BME280;34317;51.660;5.824;2023-08-06T07:10:50;100407.59;;;21.74;57.35
48527;BME280;34317;51.660;5.824;2023-08-06T07:13:17;100410.88;;;21.68;57.33
48527;BME280;34317;51.660;5.824;2023-08-06T07:15:44;100415.19;;;21.61;57.35
48527;BME280;34317;51.660;5.824;2023-08-06T07:18:11;100419.47;;;21.53;57.14
48527;BME280;34317;51.660;5.824;2023-08-06T07:20:38;100422.06;;;21.45;57.26
48527;BME280;34317;51.660;5.824;2023-08-06T07:23:05;100422.63;;;21.39;57.29
48527;BME280;34317;51.660;5.824;2023-08-06T07:25:34;100421.25;;;21.35;57.33
48527;BME280;34317;51.660;5.824;2023-08-06T07:28:01;100426.22;;;21.30;57.37
48527;BME280;34317;51.660;5.824;2023-08-06T07:30:29;100429.22;;;21.27;57.42
48527;BME280;34317;51.660;5.824;2023-08-06T07:32:56;100429.22;;;21.27;57.53
48527;BME280;34317;51.660;5.824;2023-08-06T07:35:23;100422.84;;;21.28;57.53
48527;BME280;34317;51.660;5.824;2023-08-06T07:37:49;100434.31;;;21.30;57.64
48527;BME280;34317;51.660;5.824;2023-08-06T07:40:16;100432.63;;;21.29;57.50
48527;BME280;34317;51.660;5.824;2023-08-06T07:42:43;100434.31;;;21.30;57.60
48527;BME280;34317;51.660;5.824;2023-08-06T07:45:10;100434.31;;;21.30;57.59
48527;BME280;34317;51.660;5.824;2023-08-06T07:47:37;100436.00;;;21.31;57.61
48527;BME280;34317;51.660;5.824;2023-08-06T07:50:04;100437.84;;;21.30;57.56
48527;BME280;34317;51.660;5.824;2023-08-06T07:52:31;100442.25;;;21.31;57.59
48527;BME280;34317;51.660;5.824;2023-08-06T07:54:58;100443.06;;;21.32;57.58
48527;BME280;34317;51.660;5.824;2023-08-06T07:57:25;100429.47;;;21.33;57.70
48527;BME280;34317;51.660;5.824;2023-08-06T07:59:52;100438.09;;;21.37;57.68
48527;BME280;34317;51.660;5.824;2023-08-06T08:02:20;100429.72;;;21.40;57.72
48527;BME280;34317;51.660;5.824;2023-08-06T08:04:47;100443.91;;;21.42;57.58
48527;BME280;34317;51.660;5.824;2023-08-06T08:07:14;100436.81;;;21.41;57.63
48527;BME280;34317;51.660;5.824;2023-08-06T08:09:41;100441.34;;;21.41;57.48
48527;BME280;34317;51.660;5.824;2023-08-06T08:12:08;100444.47;;;21.36;57.45
48527;BME280;34317;51.660;5.824;2023-08-06T08:14:35;100445.41;;;21.27;57.28
48527;BME280;34317;51.660;5.824;2023-08-06T08:17:03;100444.56;;;21.16;57.31
48527;BME280;34317;51.660;5.824;2023-08-06T08:19:32;100454.38;;;21.08;57.21
48527;BME280;34317;51.660;5.824;2023-08-06T08:21:59;100458.81;;;20.99;57.34
48527;BME280;34317;51.660;5.824;2023-08-06T08:24:26;100458.69;;;20.91;57.39
48527;BME280;34317;51.660;5.824;2023-08-06T08:26:53;100460.28;;;20.84;57.49
48527;BME280;34317;51.660;5.824;2023-08-06T08:29:20;100460.69;;;20.79;57.52
48527;BME280;34317;51.660;5.824;2023-08-06T08:31:48;100464.66;;;20.75;57.51
48527;BME280;34317;51.660;5.824;2023-08-06T08:34:18;100460.56;;;20.71;57.68
48527;BME280;34317;51.660;5.824;2023-08-06T08:36:45;100463.69;;;20.66;57.76
48527;BME280;34317;51.660;5.824;2023-08-06T08:39:16;100463.97;;;20.63;57.68
48527;BME280;34317;51.660;5.824;2023-08-06T08:41:43;100471.59;;;20.58;57.63
48527;BME280;34317;51.660;5.824;2023-08-06T08:44:10;100475.84;;;20.51;57.63
48527;BME280;34317;51.660;5.824;2023-08-06T08:46:38;100478.13;;;20.46;57.65
48527;BME280;34317;51.660;5.824;2023-08-06T08:49:07;100484.94;;;20.40;57.67
48527;BME280;34317;51.660;5.824;2023-08-06T08:51:34;100484.38;;;20.36;57.79
48527;BME280;34317;51.660;5.824;2023-08-06T08:54:03;100491.88;;;20.33;57.86
48527;BME280;34317;51.660;5.824;2023-08-06T08:56:31;100495.66;;;20.30;57.81
48527;BME280;34317;51.660;5.824;2023-08-06T08:58:58;100506.16;;;20.23;57.75
48527;BME280;34317;51.660;5.824;2023-08-06T09:01:26;100504.16;;;20.16;57.75
48527;BME280;34317;51.660;5.824;2023-08-06T09:03:55;100512.34;;;20.05;57.61
48527;BME280;34317;51.660;5.824;2023-08-06T09:06:23;100504.41;;;19.93;57.63
48527;BME280;34317;51.660;5.824;2023-08-06T09:09:02;100514.56;;;19.80;57.53
48527;BME280;34317;51.660;5.824;2023-08-06T09:11:35;100523.22;;;19.62;57.49
48527;BME280;34317;51.660;5.824;2023-08-06T09:14:06;100519.19;;;19.47;57.59
48527;BME280;34317;51.660;5.824;2023-08-06T09:16:35;100515.88;;;19.34;57.70
48527;BME280;34317;51.660;5.824;2023-08-06T09:19:11;100528.69;;;19.20;57.73
48527;BME280;34317;51.660;5.824;2023-08-06T09:21:45;100522.66;;;19.07;57.76
48527;BME280;34317;51.660;5.824;2023-08-06T09:24:15;100528.94;;;18.96;57.93
48527;BME280;34317;51.660;5.824;2023-08-06T09:26:43;100529.63;;;18.89;57.99
48527;BME280;34317;51.660;5.824;2023-08-06T09:29:11;100533.53;;;18.84;58.10
48527;BME280;34317;51.660;5.824;2023-08-06T09:31:41;100535.72;;;18.79;58.28
48527;BME280;34317;51.660;5.824;2023-08-06T09:34:16;100548.69;;;18.74;58.24
48527;BME280;34317;51.660;5.824;2023-08-06T09:36:46;100545.25;;;18.72;58.28
48527;BME280;34317;51.660;5.824;2023-08-06T09:39:16;100548.94;;;18.71;58.42
48527;BME280;34317;51.660;5.824;2023-08-06T09:41:44;100552.59;;;18.70;58.48
48527;BME280;34317;51.660;5.824;2023-08-06T09:44:20;100552.88;;;18.67;58.52
48527;BME280;34317;51.660;5.824;2023-08-06T09:46:48;100554.84;;;18.65;58.51
48527;BME280;34317;51.660;5.824;2023-08-06T09:49:17;100548.75;;;18.63;58.52
48527;BME280;34317;51.660;5.824;2023-08-06T09:51:49;100556.78;;;18.63;58.63
48527;BME280;34317;51.660;5.824;2023-08-06T09:54:19;100565.81;;;18.62;58.61
48527;BME280;34317;51.660;5.824;2023-08-06T09:56:54;100564.09;;;18.61;58.54
48527;BME280;34317;51.660;5.824;2023-08-06T09:59:24;100564.97;;;18.61;58.76
48527;BME280;34317;51.660;5.824;2023-08-06T10:01:52;100569.34;;;18.62;58.74
48527;BME280;34317;51.660;5.824;2023-08-06T10:04:21;100574.81;;;18.61;58.60
48527;BME280;34317;51.660;5.824;2023-08-06T10:06:52;100565.81;;;18.62;58.88
48527;BME280;34317;51.660;5.824;2023-08-06T10:09:19;100570.06;;;18.64;58.81
48527;BME280;34317;51.660;5.824;2023-08-06T10:11:49;100574.34;;;18.67;58.91
48527;BME280;34317;51.660;5.824;2023-08-06T10:14:18;100568.69;;;18.70;58.89
48527;BME280;34317;51.660;5.824;2023-08-06T10:16:46;100568.44;;;18.73;58.86
48527;BME280;34317;51.660;5.824;2023-08-06T10:19:14;100573.56;;;18.76;58.80
48527;BME280;34317;51.660;5.824;2023-08-06T10:21:42;100575.97;;;18.79;58.84
48527;BME280;34317;51.660;5.824;2023-08-06T10:24:22;100575.63;;;18.84;58.84
48527;BME280;34317;51.660;5.824;2023-08-06T10:26:49;100581.59;;;18.88;58.88
48527;BME280;34317;51.660;5.824;2023-08-06T10:29:35;100579.63;;;18.90;58.90
48527;BME280;34317;51.660;5.824;2023-08-06T10:32:03;100589.84;;;18.96;58.97
48527;BME280;34317;51.660;5.824;2023-08-06T10:37:17;100583.69;;;19.05;58.94
48527;BME280;34317;51.660;5.824;2023-08-06T10:39:49;100584.16;;;19.10;58.93
48527;BME280;34317;51.660;5.824;2023-08-06T10:42:35;100587.28;;;19.15;59.07
48527;BME280;34317;51.660;5.824;2023-08-06T10:45:16;100586.06;;;19.19;58.99
48527;BME280;34317;51.660;5.824;2023-08-06T10:47:44;100595.81;;;19.20;59.01
48527;BME280;34317;51.660;5.824;2023-08-06T10:50:17;100593.84;;;19.22;59.02
48527;BME280;34317;51.660;5.824;2023-08-06T10:52:45;100595.44;;;19.25;58.87
48527;BME280;34317;51.660;5.824;2023-08-06T10:55:12;100601.34;;;19.29;58.94
48527;BME280;34317;51.660;5.824;2023-08-06T10:57:40;100604.75;;;19.31;59.22
48527;BME280;34317;51.660;5.824;2023-08-06T11:00:07;100609.88;;;19.34;58.88
48527;BME280;34317;51.660;5.824;2023-08-06T11:02:42;100607.91;;;19.36;58.99
48527;BME280;34317;51.660;5.824;2023-08-06T11:05:11;100607.66;;;19.39;58.86
48527;BME280;34317;51.660;5.824;2023-08-06T11:07:38;100616.69;;;19.38;58.93
48527;BME280;34317;51.660;5.824;2023-08-06T11:10:07;100626.34;;;19.40;58.95
48527;BME280;34317;51.660;5.824;2023-08-06T11:12:34;100628.03;;;19.41;58.95
48527;BME280;34317;51.660;5.824;2023-08-06T11:15:02;100621.56;;;19.44;59.01
48527;BME280;34317;51.660;5.824;2023-08-06T11:17:30;100630.31;;;19.46;59.01
48527;BME280;34317;51.660;5.824;2023-08-06T11:20:03;100626.50;;;19.49;58.90
48527;BME280;34317;51.660;5.824;2023-08-06T11:22:31;100638.81;;;19.51;58.93
48527;BME280;34317;51.660;5.824;2023-08-06T11:24:58;100636.13;;;19.51;58.86
48527;BME280;34317;51.660;5.824;2023-08-06T11:27:25;100633.19;;;19.54;59.00
48527;BME280;34317;51.660;5.824;2023-08-06T11:29:53;100629.53;;;19.55;59.00
48527;BME280;34317;51.660;5.824;2023-08-06T11:32:19;100631.22;;;19.56;58.91
48527;BME280;34317;51.660;5.824;2023-08-06T11:34:46;100632.94;;;19.57;58.92
48527;BME280;34317;51.660;5.824;2023-08-06T11:37:13;100645.66;;;19.55;58.84
48527;BME280;34317;51.660;5.824;2023-08-06T11:39:47;100643.09;;;19.54;58.83
48527;BME280;34317;51.660;5.824;2023-08-06T11:42:15;100638.56;;;19.54;58.93
48527;BME280;34317;51.660;5.824;2023-08-06T11:44:42;100641.13;;;19.56;58.98
48527;BME280;34317;51.660;5.824;2023-08-06T11:47:13;100635.75;;;19.56;58.98
48527;BME280;34317;51.660;5.824;2023-08-06T11:52:08;100642.22;;;19.53;58.95
48527;BME280;34317;51.660;5.824;2023-08-06T11:54:35;100646.50;;;19.56;59.07
48527;BME280;34317;51.660;5.824;2023-08-06T11:57:07;100646.50;;;19.56;59.07
48527;BME280;34317;51.660;5.824;2023-08-06T11:59:34;100651.03;;;19.55;59.03
48527;BME280;34317;51.660;5.824;2023-08-06T12:02:02;100657.25;;;19.56;58.98
48527;BME280;34317;51.660;5.824;2023-08-06T12:04:32;100658.09;;;19.56;59.09
48527;BME280;34317;51.660;5.824;2023-08-06T12:07:05;100659.81;;;19.57;59.06
48527;BME280;34317;51.660;5.824;2023-08-06T12:09:34;100659.81;;;19.57;58.98
48527;BME280;34317;51.660;5.824;2023-08-06T12:12:02;100666.88;;;19.58;59.07
48527;BME280;34317;51.660;5.824;2023-08-06T12:14:30;100669.16;;;19.63;59.08
48527;BME280;34317;51.660;5.824;2023-08-06T12:16:57;100677.94;;;19.65;59.27
48527;BME280;34317;51.660;5.824;2023-08-06T12:19:24;100674.84;;;19.70;59.22
48527;BME280;34317;51.660;5.824;2023-08-06T12:21:54;100681.69;;;19.74;59.31
48527;BME280;34317;51.660;5.824;2023-08-06T12:24:21;100683.00;;;19.79;59.29
48527;BME280;34317;51.660;5.824;2023-08-06T12:26:48;100695.34;;;19.82;59.20
48527;BME280;34317;51.660;5.824;2023-08-06T12:29:15;100690.69;;;19.84;59.23
48527;BME280;34317;51.660;5.824;2023-08-06T12:31:42;100695.06;;;19.85;59.15
48527;BME280;34317;51.660;5.824;2023-08-06T12:34:09;100704.13;;;19.84;59.16
48527;BME280;34317;51.660;5.824;2023-08-06T12:36:36;100705.97;;;19.83;59.25
48527;BME280;34317;51.660;5.824;2023-08-06T12:39:02;100704.13;;;19.84;59.08
48527;BME280;34317;51.660;5.824;2023-08-06T12:41:29;100705.81;;;19.85;59.11
48527;BME280;34317;51.660;5.824;2023-08-06T12:43:56;100716.56;;;19.85;59.05
48527;BME280;34317;51.660;5.824;2023-08-06T12:46:23;100721.22;;;19.83;59.10
48527;BME280;34317;51.660;5.824;2023-08-06T12:48:50;100716.84;;;19.82;59.10
48527;BME280;34317;51.660;5.824;2023-08-06T12:51:17;100724.91;;;19.82;59.18
48527;BME280;34317;51.660;5.824;2023-08-06T12:53:44;100721.22;;;19.83;59.08
48527;BME280;34317;51.660;5.824;2023-08-06T12:56:11;100727.59;;;19.82;59.12
48527;BME280;34317;51.660;5.824;2023-08-06T12:58:38;100725.88;;;19.81;58.97
48527;BME280;34317;51.660;5.824;2023-08-06T13:01:06;100727.84;;;19.79;59.05
48527;BME280;34317;51.660;5.824;2023-08-06T13:03:33;100729.81;;;19.77;59.01
48527;BME280;34317;51.660;5.824;2023-08-06T13:06:00;100726.16;;;19.78;58.95
48527;BME280;34317;51.660;5.824;2023-08-06T13:08:27;100734.94;;;19.80;59.25